Haleakala, Hawaii
Current Conditions -  °F | °C
As of 10:54 AM on Saturday 22 Nov 2014 (Local Time) from PHOG Reporting Station
Few Clouds Few Clouds  
Wind Chill: 84°   Ceiling: Unl
Heat Index: 84°   Visibility: 10mi
Dew Point: 60°   Wind: 3mph
Humidity: 44%   Direction: 190°S
Pressure: 30.03"   Gusts: NA
Location:  20.72°N, 156.13°W
Report Text: PHOG 222054Z 19003KT 10SM FEW035 29/16 A3003 RMK AO2 SLP174 T02890156 58006
Loading
Personal Weather Stations






























Interactive Weather Map New forecast layout! Learn more

10-Day Weather Forecast

Advertisements
Track Severe Weather on mobile